Pelican, Wisconsin
Current Conditions -  °F | °C
As of 1:53 AM on Monday 24 Nov 2014 (Local Time) from KRHI Reporting Station
Light Rain Light Rain  
Wind Chill: 33°   Ceiling: 600
Heat Index: 38°   Visibility: 1.2mi
Dew Point: 38°   Wind: 6mph
Humidity: 100%   Direction: 320°NW
Pressure: 29.09"   Gusts: NA
Location:  45.6521°N, 89.3386°W
Report Text: KRHI 240753Z AUTO 32005KT 1 1/4SM -RA BR BKN006 OVC011 03/03 A2909 RMK AO2 SLP860 P0001 T00330033
Loading
Personal Weather Stations






























Interactive Weather Map New forecast layout! Learn more

10-Day Weather Forecast

Advertisements
Track Severe Weather on mobile